Terminal Aerodrome Forecast
Issued by NWS Grand Forks, ND

Home | Current Version | Previous Version | Text Only | Print | Product List | Glossary On
Versions: 1 2 3 4 5 6 7 8 9 10 11 12 13 14 15 16 17 18 19
000
FTUS43 KFGF 252300
TAFFAR
TAF
KFAR 252338Z 2600/2624 13010KT P6SM OVC030
      TEMPO 2603/2605 4SM -SN OVC020
     FM260500 01015KT 2SM -SN OVC012
     FM260800 36017KT 1SM -SN OVC010
     FM261200 35017KT P6SM BKN015
     FM261500 36015G22KT P6SM FEW020=

USA.gov is the U.S. government's official web portal to all federal, state and local government web resources and services.